createdAt,value
2019-01-28T00:00:39.166Z,13.2
2019-01-28T00:01:29.810Z,13.2
2019-01-28T00:02:19.283Z,13.2
2019-01-28T00:03:08.574Z,13.1
2019-01-28T00:03:59.188Z,13.1
2019-01-28T00:04:49.976Z,13.1
2019-01-28T00:05:39.516Z,13.1
2019-01-28T00:06:29.866Z,13.1
2019-01-28T00:07:19.853Z,13.1
2019-01-28T00:08:09.943Z,13.1
2019-01-28T00:09:00.431Z,13.1
2019-01-28T00:09:49.587Z,13.1
2019-01-28T00:10:40.148Z,13.1
2019-01-28T00:11:29.915Z,13.1
2019-01-28T00:12:21.594Z,13.1
2019-01-28T00:13:10.018Z,13.1
2019-01-28T00:14:01.160Z,13.1
2019-01-28T00:14:51.030Z,13.1
2019-01-28T00:15:39.975Z,13.1
2019-01-28T00:16:30.517Z,13.1
2019-01-28T00:17:20.676Z,13.1
2019-01-28T00:18:11.043Z,13.1
2019-01-28T00:19:00.737Z,13
2019-01-28T00:19:50.308Z,13
2019-01-28T00:20:40.838Z,13.1
2019-01-28T00:21:31.352Z,13.1
2019-01-28T00:22:21.755Z,13
2019-01-28T00:23:10.132Z,13
2019-01-28T00:24:00.492Z,13
2019-01-28T00:24:50.265Z,13
2019-01-28T00:25:39.815Z,13
2019-01-28T00:26:30.950Z,13
2019-01-28T00:27:21.482Z,13
2019-01-28T00:28:11.344Z,13
2019-01-28T00:29:01.409Z,13
2019-01-28T00:29:51.959Z,13
2019-01-28T00:30:41.482Z,13
2019-01-28T00:31:30.467Z,12.9
2019-01-28T00:32:21.337Z,13
2019-01-28T00:33:11.141Z,12.9
2019-01-28T00:34:01.489Z,12.9
2019-01-28T00:34:52.114Z,12.9
2019-01-28T00:35:41.944Z,12.9
2019-01-28T00:36:31.947Z,13
2019-01-28T00:37:22.452Z,12.9
2019-01-28T00:38:12.791Z,12.9
2019-01-28T00:39:02.694Z,12.9
2019-01-28T00:39:52.324Z,12.9
2019-01-28T00:40:41.831Z,12.9
2019-01-28T00:41:31.694Z,12.9
2019-01-28T00:42:21.751Z,12.9
2019-01-28T00:43:12.296Z,12.9
2019-01-28T00:44:03.018Z,12.9
2019-01-28T00:44:53.241Z,12.9
2019-01-28T00:45:43.024Z,12.9
2019-01-28T00:46:32.813Z,12.9
2019-01-28T00:47:22.837Z,12.9
2019-01-28T00:48:12.636Z,12.9
2019-01-28T00:49:03.539Z,12.9
2019-01-28T00:49:53.066Z,12.9
2019-01-28T00:50:42.791Z,12.9
2019-01-28T00:51:33.667Z,12.9
2019-01-28T00:52:22.928Z,12.9
2019-01-28T00:53:14.426Z,12.9
2019-01-28T00:54:03.590Z,12.9
2019-01-28T00:54:53.356Z,12.9
2019-01-28T00:55:44.235Z,12.9
2019-01-28T00:56:33.743Z,12.9
2019-01-28T00:57:23.613Z,12.9
2019-01-28T00:58:14.408Z,12.9
2019-01-28T00:59:04.560Z,12.9
2019-01-28T00:59:54.290Z,12.9
2019-01-28T01:00:44.857Z,12.9
2019-01-28T01:01:33.620Z,12.9
2019-01-28T01:02:22.852Z,12.9
2019-01-28T01:03:12.907Z,12.9
2019-01-28T01:04:03.820Z,12.9
2019-01-28T01:04:54.712Z,12.9
2019-01-28T01:05:43.825Z,12.9
2019-01-28T01:06:33.957Z,12.9
2019-01-28T01:07:24.045Z,12.9
2019-01-28T01:08:14.094Z,12.9
2019-01-28T01:09:04.136Z,12.9
2019-01-28T01:09:54.257Z,12.9
2019-01-28T01:10:44.320Z,12.9
2019-01-28T01:11:33.560Z,12.9
2019-01-28T01:12:24.704Z,12.9
2019-01-28T01:13:14.492Z,12.9
2019-01-28T01:14:04.319Z,12.9
2019-01-28T01:14:53.762Z,12.9
2019-01-28T01:15:44.429Z,12.9
2019-01-28T01:16:34.449Z,12.9
2019-01-28T01:17:24.504Z,12.9
2019-01-28T01:18:13.489Z,12.8
2019-01-28T01:19:05.293Z,12.9
2019-01-28T01:19:55.349Z,12.9
2019-01-28T01:20:44.600Z,12.8
2019-01-28T01:21:34.891Z,12.8
2019-01-28T01:22:25.356Z,12.9
2019-01-28T01:23:15.045Z,12.8
2019-01-28T01:24:05.372Z,12.9
2019-01-28T01:24:55.989Z,12.8
2019-01-28T01:25:44.986Z,12.9
2019-01-28T01:26:35.247Z,12.9
2019-01-28T01:27:26.441Z,12.9
2019-01-28T01:28:15.082Z,12.9
2019-01-28T01:29:06.275Z,12.9
2019-01-28T01:29:55.473Z,12.8
2019-01-28T01:30:45.548Z,12.8
2019-01-28T01:31:36.156Z,12.9
2019-01-28T01:32:25.951Z,12.8
2019-01-28T01:33:15.807Z,12.9
2019-01-28T01:34:06.085Z,12.8
2019-01-28T01:34:56.445Z,12.8
2019-01-28T01:35:46.188Z,12.8
2019-01-28T01:36:36.202Z,12.8
2019-01-28T01:37:26.315Z,12.9
2019-01-28T01:38:16.309Z,12.8
2019-01-28T01:39:06.238Z,12.9
2019-01-28T01:39:57.050Z,12.9
2019-01-28T01:40:46.235Z,12.9
2019-01-28T01:41:35.551Z,12.9
2019-01-28T01:42:26.110Z,12.9
2019-01-28T01:43:16.479Z,12.9
2019-01-28T01:44:06.754Z,12.9
2019-01-28T01:44:57.387Z,12.9
2019-01-28T01:45:47.104Z,12.8
2019-01-28T01:46:36.345Z,12.9
2019-01-28T01:47:27.297Z,12.9
2019-01-28T01:48:17.440Z,12.9
2019-01-28T01:49:07.322Z,12.8
2019-01-28T01:49:57.405Z,12.9
2019-01-28T01:50:48.029Z,12.9
2019-01-28T01:51:37.572Z,12.9
2019-01-28T01:52:27.594Z,12.9
2019-01-28T01:53:17.077Z,12.9
2019-01-28T01:54:07.724Z,12.9
2019-01-28T01:54:58.082Z,12.9
2019-01-28T01:55:46.966Z,12.9
2019-01-28T01:56:37.916Z,12.9
2019-01-28T01:57:28.254Z,12.9
2019-01-28T01:58:20.432Z,12.9
2019-01-28T01:59:08.331Z,12.9
2019-01-28T01:59:57.344Z,12.8
2019-01-28T02:00:48.491Z,12.9
2019-01-28T02:01:38.229Z,12.9
2019-01-28T02:02:36.314Z,12.9
2019-01-28T02:03:17.826Z,12.9
2019-01-28T02:04:08.677Z,12.9
2019-01-28T02:04:59.000Z,12.9
2019-01-28T02:05:48.206Z,12.9
2019-01-28T02:06:38.801Z,12.9
2019-01-28T02:07:28.033Z,12.9
2019-01-28T02:08:18.933Z,12.9
2019-01-28T02:09:09.041Z,12.9
2019-01-28T02:09:57.941Z,12.9
2019-01-28T02:10:48.830Z,12.9
2019-01-28T02:11:38.608Z,12.9
2019-01-28T02:12:28.173Z,12.9
2019-01-28T02:13:18.717Z,12.9
2019-01-28T02:14:08.222Z,12.9
2019-01-28T02:14:58.881Z,12.9
2019-01-28T02:15:47.583Z,12.9
2019-01-28T02:16:38.963Z,12.9
2019-01-28T02:17:29.272Z,12.9
2019-01-28T02:18:19.910Z,12.9
2019-01-28T02:19:09.417Z,12.9
2019-01-28T02:19:59.175Z,12.9
2019-01-28T02:20:49.784Z,12.9
2019-01-28T02:21:39.297Z,12.9
2019-01-28T02:22:29.343Z,12.9
2019-01-28T02:23:19.390Z,12.9
2019-01-28T02:24:09.732Z,12.9
2019-01-28T02:25:00.105Z,12.9
2019-01-28T02:25:49.370Z,12.9
2019-01-28T02:26:40.507Z,12.9
2019-01-28T02:27:30.249Z,12.9
2019-01-28T02:28:20.131Z,12.9
2019-01-28T02:29:09.806Z,12.9
2019-01-28T02:30:00.427Z,12.9
2019-01-28T02:30:49.967Z,12.9
2019-01-28T02:31:40.592Z,12.9
2019-01-28T02:32:31.242Z,12.9
2019-01-28T02:33:20.675Z,12.9
2019-01-28T02:34:10.197Z,12.9
2019-01-28T02:35:00.881Z,12.9
2019-01-28T02:35:50.540Z,12.9
2019-01-28T02:36:40.449Z,12.9
2019-01-28T02:37:31.307Z,12.9
2019-01-28T02:38:21.132Z,12.9
2019-01-28T02:39:10.129Z,12.9
2019-01-28T02:40:01.427Z,12.9
2019-01-28T02:40:51.228Z,12.9
2019-01-28T02:41:40.572Z,12.9
2019-01-28T02:42:30.269Z,12.9
2019-01-28T02:43:20.863Z,12.9
2019-01-28T02:44:11.447Z,12.9
2019-01-28T02:45:01.829Z,12.9
2019-01-28T02:45:51.579Z,12.9
2019-01-28T02:46:41.363Z,12.9
2019-01-28T02:47:30.793Z,12.9
2019-01-28T02:48:20.723Z,12.9
2019-01-28T02:49:10.917Z,12.9
2019-01-28T02:50:02.123Z,12.9
2019-01-28T02:50:51.066Z,12.9
2019-01-28T02:51:40.653Z,12.9
2019-01-28T02:52:31.754Z,12.9
2019-01-28T02:53:21.878Z,12.9
2019-01-28T02:54:11.566Z,12.9
2019-01-28T02:55:01.941Z,12.9
2019-01-28T02:55:51.564Z,12.9
2019-01-28T02:56:42.013Z,12.9
2019-01-28T02:57:31.773Z,12.9
2019-01-28T02:58:22.383Z,12.9
2019-01-28T02:59:12.174Z,12.9
2019-01-28T03:00:02.135Z,12.9
2019-01-28T03:00:51.629Z,12.9
2019-01-28T03:01:41.815Z,12.9
2019-01-28T03:02:31.968Z,12.9
2019-01-28T03:03:22.251Z,12.9
2019-01-28T03:04:12.868Z,13
2019-01-28T03:05:02.473Z,12.9
2019-01-28T03:08:34.914Z,12.9
2019-01-28T03:09:25.477Z,12.9
2019-01-28T03:10:15.845Z,13
2019-01-28T03:11:05.614Z,13
2019-01-28T03:11:55.143Z,13
2019-01-28T03:12:44.900Z,13
2019-01-28T03:13:35.530Z,13
2019-01-28T03:14:24.996Z,12.9
2019-01-28T03:15:15.688Z,13
2019-01-28T03:16:05.970Z,13
2019-01-28T03:16:55.750Z,13
2019-01-28T03:17:45.569Z,13
2019-01-28T03:18:36.489Z,13
2019-01-28T03:19:26.446Z,13
2019-01-28T03:20:15.848Z,13
2019-01-28T03:21:07.147Z,13
2019-01-28T03:21:56.094Z,13
2019-01-28T03:22:46.485Z,13
2019-01-28T03:23:36.929Z,13
2019-01-28T03:24:26.479Z,13
2019-01-28T03:25:16.811Z,13
2019-01-28T03:26:06.644Z,13
2019-01-28T03:26:57.232Z,13
2019-01-28T03:27:49.448Z,13
2019-01-28T03:28:37.286Z,13
2019-01-28T03:29:27.133Z,13
2019-01-28T03:30:17.776Z,13.1
2019-01-28T03:31:08.159Z,13.1
2019-01-28T03:31:56.936Z,13
2019-01-28T03:32:47.269Z,13.1
2019-01-28T03:33:37.289Z,13.1
2019-01-28T03:34:27.425Z,13.1
2019-01-28T03:35:18.034Z,13.1
2019-01-28T03:36:07.822Z,13
2019-01-28T03:36:57.855Z,13.1
2019-01-28T03:37:47.983Z,13.1
2019-01-28T03:38:36.921Z,13.1
2019-01-28T03:39:27.308Z,13
2019-01-28T03:40:18.110Z,13.1
2019-01-28T03:41:07.654Z,13.1
2019-01-28T03:41:58.460Z,13.1
2019-01-28T03:42:48.315Z,13.1
2019-01-28T03:43:38.652Z,13.1
2019-01-28T03:44:28.083Z,13.1
2019-01-28T03:45:17.385Z,13.1
2019-01-28T03:46:10.797Z,13.1
2019-01-28T03:46:58.313Z,13.1
2019-01-28T03:47:48.132Z,13.1
2019-01-28T03:48:38.645Z,13.1
2019-01-28T03:49:27.597Z,13.1
2019-01-28T03:50:18.877Z,13.1
2019-01-28T03:51:09.237Z,13.1
2019-01-28T03:51:58.690Z,13.1
2019-01-28T03:52:49.064Z,13.1
2019-01-28T03:53:38.172Z,13.1
2019-01-28T03:54:29.354Z,13.1
2019-01-28T03:55:19.167Z,13.1
2019-01-28T03:56:09.430Z,13.1
2019-01-28T03:56:58.940Z,13.1
2019-01-28T03:57:49.632Z,13.1
2019-01-28T03:58:39.318Z,13.1
2019-01-28T03:59:29.481Z,13.1
2019-01-28T04:00:19.457Z,13.1
2019-01-28T04:01:08.962Z,13.1
2019-01-28T04:01:59.317Z,13.2
2019-01-28T04:02:49.510Z,13.1
2019-01-28T04:03:39.137Z,13.1
2019-01-28T04:04:29.163Z,13.2
2019-01-28T04:05:20.194Z,13.2
2019-01-28T04:06:09.824Z,13.2
2019-01-28T04:06:59.071Z,13.2
2019-01-28T04:07:49.456Z,13.1
2019-01-28T04:08:39.996Z,13.2
2019-01-28T04:09:30.096Z,13.2
2019-01-28T04:10:20.163Z,13.2
2019-01-28T04:11:09.636Z,13.2
2019-01-28T04:11:59.961Z,13.2
2019-01-28T04:12:50.615Z,13.2
2019-01-28T04:13:40.401Z,13.2
2019-01-28T04:14:29.358Z,13.2
2019-01-28T04:15:20.462Z,13.2
2019-01-28T04:16:10.443Z,13.2
2019-01-28T04:17:00.655Z,13.2
2019-01-28T04:17:50.402Z,13.2
2019-01-28T04:18:40.145Z,13.2
2019-01-28T04:19:30.564Z,13.3
2019-01-28T04:20:20.957Z,13.3
2019-01-28T04:21:10.623Z,13.3
2019-01-28T04:22:00.187Z,13.3
2019-01-28T04:22:50.327Z,13.3
2019-01-28T04:23:40.464Z,13.3
2019-01-28T04:24:29.969Z,13.3
2019-01-28T04:25:36.121Z,13.3
2019-01-28T04:26:10.687Z,13.3
2019-01-28T04:27:00.970Z,13.3
2019-01-28T04:27:50.743Z,13.3
2019-01-28T04:28:40.237Z,13.3
2019-01-28T04:29:31.155Z,13.3
2019-01-28T04:30:21.055Z,13.3
2019-01-28T04:31:11.262Z,13.3
2019-01-28T04:32:00.786Z,13.3
2019-01-28T04:32:51.472Z,13.3
2019-01-28T04:33:41.659Z,13.3
2019-01-28T04:34:31.243Z,13.3
2019-01-28T04:35:21.676Z,13.3
2019-01-28T04:36:11.752Z,13.3
2019-01-28T04:37:00.822Z,13.3
2019-01-28T04:37:51.991Z,13.3
2019-01-28T04:38:41.624Z,13.3
2019-01-28T04:39:32.092Z,13.3
2019-01-28T04:40:21.714Z,13.3
2019-01-28T04:41:12.262Z,13.3
2019-01-28T04:42:02.336Z,13.3
2019-01-28T04:42:52.071Z,13.3
2019-01-28T04:43:41.309Z,13.3
2019-01-28T04:44:32.802Z,13.3
2019-01-28T04:45:22.829Z,13.4
2019-01-28T04:46:12.353Z,13.4
2019-01-28T04:47:02.366Z,13.3
2019-01-28T04:47:52.889Z,13.4
2019-01-28T04:48:42.526Z,13.4
2019-01-28T04:49:33.131Z,13.4
2019-01-28T04:50:22.082Z,13.4
2019-01-28T04:51:12.630Z,13.4
2019-01-28T04:52:02.673Z,13.4
2019-01-28T04:52:52.601Z,13.4
2019-01-28T04:53:42.731Z,13.4
2019-01-28T04:54:33.135Z,13.4
2019-01-28T04:55:22.743Z,13.4
2019-01-28T04:56:12.660Z,13.4
2019-01-28T04:57:03.061Z,13.4
2019-01-28T04:57:53.742Z,13.4
2019-01-28T04:58:43.202Z,13.4
2019-01-28T04:59:33.518Z,13.4
2019-01-28T05:00:24.124Z,13.4
2019-01-28T05:01:13.563Z,13.4
2019-01-28T05:02:03.623Z,13.4
2019-01-28T05:02:53.471Z,13.4
2019-01-28T05:03:43.175Z,13.4
2019-01-28T05:04:33.323Z,13.4
2019-01-28T05:05:23.717Z,13.4
2019-01-28T05:06:16.063Z,13.4
2019-01-28T05:07:03.436Z,13.4
2019-01-28T05:07:54.152Z,13.4
2019-01-28T05:08:43.535Z,13.4
2019-01-28T05:09:33.971Z,13.4
2019-01-28T05:10:23.470Z,13.4
2019-01-28T05:11:12.934Z,13.4
2019-01-28T05:12:03.907Z,13.4
2019-01-28T05:12:53.654Z,13.5
2019-01-28T05:13:43.952Z,13.5
2019-01-28T05:14:32.930Z,13.5
2019-01-28T05:15:24.482Z,13.5
2019-01-28T05:16:14.114Z,13.5
2019-01-28T05:17:03.643Z,13.5
2019-01-28T05:17:52.895Z,13.5
2019-01-28T05:18:44.326Z,13.5
2019-01-28T05:19:35.875Z,13.5
2019-01-28T05:20:24.756Z,13.5
2019-01-28T05:21:14.979Z,13.5
2019-01-28T05:22:04.546Z,13.5
2019-01-28T05:22:53.899Z,13.6
2019-01-28T05:23:45.139Z,13.5
2019-01-28T05:24:34.874Z,13.6
2019-01-28T05:25:24.501Z,13.5
2019-01-28T05:26:15.659Z,13.6
2019-01-28T05:27:04.848Z,13.5
2019-01-28T05:27:54.963Z,13.6
2019-01-28T05:28:44.449Z,13.6
2019-01-28T05:29:34.491Z,13.6
2019-01-28T05:30:24.926Z,13.6
2019-01-28T05:31:14.873Z,13.6
2019-01-28T05:32:04.984Z,13.6
2019-01-28T05:32:55.403Z,13.6
2019-01-28T05:33:45.322Z,13.5
2019-01-28T05:34:35.060Z,13.6
2019-01-28T05:35:25.496Z,13.6
2019-01-28T05:36:15.111Z,13.6
2019-01-28T05:37:06.318Z,13.6
2019-01-28T05:37:56.441Z,13.6
2019-01-28T05:38:45.591Z,13.6
2019-01-28T05:39:35.885Z,13.6
2019-01-28T05:40:26.060Z,13.6
2019-01-28T05:41:16.070Z,13.6
2019-01-28T05:42:06.088Z,13.6
2019-01-28T05:42:56.220Z,13.6
2019-01-28T05:43:45.031Z,13.6
2019-01-28T05:44:35.970Z,13.6
2019-01-28T05:45:26.311Z,13.6
2019-01-28T05:46:15.902Z,13.6
2019-01-28T05:47:05.930Z,13.6
2019-01-28T05:47:56.567Z,13.6
2019-01-28T05:48:46.025Z,13.6
2019-01-28T05:49:36.367Z,13.6
2019-01-28T05:50:25.869Z,13.6
2019-01-28T05:51:16.180Z,13.6
2019-01-28T05:52:06.270Z,13.6
2019-01-28T05:52:56.870Z,13.6
2019-01-28T05:53:47.114Z,13.6
2019-01-28T05:54:37.183Z,13.6
2019-01-28T05:55:26.956Z,13.6
2019-01-28T05:56:16.192Z,13.6
2019-01-28T05:57:08.651Z,13.6
2019-01-28T05:57:57.732Z,13.6
2019-01-28T05:58:47.284Z,13.6
2019-01-28T05:59:37.020Z,13.6
2019-01-28T06:00:27.321Z,13.6
2019-01-28T06:01:17.077Z,13.6
2019-01-28T06:02:07.971Z,13.6
2019-01-28T06:02:57.597Z,13.6
2019-01-28T06:03:48.126Z,13.6
2019-01-28T06:06:35.487Z,13.6
2019-01-28T06:07:40.531Z,13.6
2019-01-28T06:08:16.029Z,13.7
2019-01-28T06:09:06.421Z,13.6
2019-01-28T06:09:55.793Z,13.6
2019-01-28T06:11:00.499Z,13.6
2019-01-28T06:12:05.646Z,13.7
2019-01-28T06:12:32.018Z,13.6
2019-01-28T06:13:36.107Z,13.6
2019-01-28T06:14:40.176Z,13.7
2019-01-28T06:15:02.263Z,13.6
2019-01-28T06:15:52.035Z,13.7
2019-01-28T06:16:41.532Z,13.7
2019-01-28T06:17:40.046Z,13.7
2019-01-28T06:18:22.338Z,13.7
2019-01-28T06:19:39.633Z,13.7
2019-01-28T06:20:02.142Z,13.7
2019-01-28T06:20:50.660Z,13.7
2019-01-28T06:21:41.790Z,13.7
2019-01-28T06:22:45.151Z,13.7
2019-01-28T06:23:21.016Z,13.7
2019-01-28T06:24:26.748Z,13.7
2019-01-28T06:25:01.652Z,13.7
2019-01-28T06:25:51.545Z,13.7
2019-01-28T06:26:41.593Z,13.7
2019-01-28T06:27:32.310Z,13.7
2019-01-28T06:28:21.551Z,13.7
2019-01-28T06:29:12.270Z,13.7
2019-01-28T06:30:01.154Z,13.7
2019-01-28T06:31:05.952Z,13.7
2019-01-28T06:31:42.728Z,13.7
2019-01-28T06:32:46.211Z,13.7
2019-01-28T06:33:21.830Z,13.7
2019-01-28T07:06:35.703Z,13.4
2019-01-28T07:07:25.588Z,13.4
2019-01-28T07:08:15.843Z,13.4
2019-01-28T07:09:06.191Z,13.4
2019-01-28T07:09:54.896Z,13.3
2019-01-28T07:10:45.704Z,13.3
2019-01-28T07:11:35.590Z,13.3
2019-01-28T07:12:25.538Z,13.3
2019-01-28T07:13:15.598Z,13.3
2019-01-28T07:14:06.201Z,13.3
2019-01-28T07:14:55.736Z,13.3
2019-01-28T07:15:46.616Z,13.3
2019-01-28T07:16:36.481Z,13.3
2019-01-28T07:17:26.460Z,13.3
2019-01-28T07:18:16.483Z,13.3
2019-01-28T07:19:06.553Z,13.2
2019-01-28T07:19:55.563Z,13.2
2019-01-28T07:20:46.383Z,13.2
2019-01-28T07:21:35.623Z,13.2
2019-01-28T07:22:25.699Z,13.2
2019-01-28T07:23:16.822Z,13.1
2019-01-28T07:24:07.191Z,13.1
2019-01-28T07:24:56.685Z,13.1
2019-01-28T07:25:47.038Z,13.1
2019-01-28T07:26:36.492Z,13.1
2019-01-28T07:27:26.412Z,13.1
2019-01-28T07:28:16.965Z,13.1
2019-01-28T07:29:07.030Z,13
2019-01-28T07:29:56.518Z,13
2019-01-28T07:30:47.106Z,13
2019-01-28T07:31:36.379Z,12.9
2019-01-28T07:32:26.762Z,13
2019-01-28T07:33:15.904Z,12.9
2019-01-28T07:34:06.825Z,12.9
2019-01-28T07:34:56.974Z,12.9
2019-01-28T07:35:47.194Z,12.9
2019-01-28T07:36:36.714Z,12.9
2019-01-28T07:37:26.817Z,12.9
2019-01-28T07:38:17.052Z,12.9
2019-01-28T07:39:08.289Z,12.9
2019-01-28T07:39:57.964Z,12.8
2019-01-28T07:40:47.241Z,12.8
2019-01-28T07:41:37.534Z,12.8
2019-01-28T07:42:28.169Z,12.8
2019-01-28T07:43:18.187Z,12.8
2019-01-28T07:44:07.401Z,12.8
2019-01-28T07:44:57.727Z,12.8
2019-01-28T07:45:55.106Z,12.8
2019-01-28T07:46:37.914Z,12.8
2019-01-28T07:47:27.611Z,12.7
2019-01-28T07:48:18.226Z,12.8
2019-01-28T07:49:08.583Z,12.7
2019-01-28T07:49:57.809Z,12.7
2019-01-28T07:50:47.381Z,12.7
2019-01-28T07:51:38.526Z,12.7
2019-01-28T07:52:28.871Z,12.7
2019-01-28T07:53:18.575Z,12.6
2019-01-28T07:54:08.430Z,12.6
2019-01-28T07:54:58.751Z,12.6
2019-01-28T07:55:48.776Z,12.6
2019-01-28T07:56:38.866Z,12.6
2019-01-28T07:57:29.206Z,12.6
2019-01-28T07:58:19.215Z,12.6
2019-01-28T07:59:08.690Z,12.6
2019-01-28T07:59:58.775Z,12.6
2019-01-28T08:00:49.398Z,12.6
2019-01-28T08:01:39.443Z,12.6
2019-01-28T08:02:28.645Z,12.6
2019-01-28T08:03:19.272Z,12.5
2019-01-28T08:04:09.323Z,12.5
2019-01-28T08:04:59.620Z,12.4
2019-01-28T08:05:50.062Z,12.5
2019-01-28T08:06:39.545Z,12.4
2019-01-28T08:07:29.540Z,12.4
2019-01-28T08:08:19.387Z,12.4
2019-01-28T08:09:09.617Z,12.4
2019-01-28T08:09:59.697Z,12.4
2019-01-28T08:10:49.858Z,12.4
2019-01-28T08:11:39.832Z,12.4
2019-01-28T08:12:30.402Z,12.4
2019-01-28T08:13:20.237Z,12.4
2019-01-28T08:14:10.080Z,12.3
2019-01-28T08:15:00.337Z,12.4
2019-01-28T08:15:50.399Z,12.3
2019-01-28T08:16:40.760Z,12.3
2019-01-28T08:17:29.939Z,12.3
2019-01-28T08:18:20.106Z,12.3
2019-01-28T08:19:10.615Z,12.3
2019-01-28T08:20:00.187Z,12.3
2019-01-28T08:20:50.789Z,12.3
2019-01-28T08:21:40.223Z,12.3
2019-01-28T08:22:30.296Z,12.3
2019-01-28T08:23:21.208Z,12.3
2019-01-28T08:24:11.299Z,12.3
2019-01-28T08:25:01.009Z,12.2
2019-01-28T08:25:50.826Z,12.2
2019-01-28T08:26:41.406Z,15.5
2019-01-28T08:27:30.334Z,17.6
2019-01-28T08:28:20.968Z,18.3
2019-01-28T08:29:10.486Z,19.4
2019-01-28T08:30:01.176Z,20.4
2019-01-28T08:30:51.446Z,21.4
2019-01-28T08:31:41.571Z,22.3
2019-01-28T08:32:31.699Z,23.2
2019-01-28T08:33:20.839Z,23.9
2019-01-28T08:34:11.353Z,24.7
2019-01-28T08:35:01.747Z,25.4
2019-01-28T08:35:51.453Z,26
2019-01-28T08:36:42.065Z,26.3
2019-01-28T08:37:31.117Z,26.3
2019-01-28T08:38:21.613Z,26.3
2019-01-28T08:39:11.978Z,26.4
2019-01-28T08:40:03.300Z,27.2
2019-01-28T08:40:51.806Z,27.8
2019-01-28T08:42:31.069Z,27.8
2019-01-28T08:43:23.630Z,27.8
2019-01-28T08:44:11.827Z,27.6
2019-01-28T08:45:01.633Z,27.5
2019-01-28T08:45:53.840Z,27.4
2019-01-28T08:46:42.475Z,27.2
2019-01-28T08:47:32.312Z,27.1
2019-01-28T08:48:28.052Z,26.9
2019-01-28T08:49:11.350Z,26.8
2019-01-28T08:50:01.968Z,26.7
2019-01-28T08:50:52.013Z,25.7
2019-01-28T08:51:42.577Z,25.2
2019-01-28T08:52:32.677Z,24.9
2019-01-28T08:53:21.897Z,24.7
2019-01-28T08:54:12.199Z,24.6
2019-01-28T08:55:02.889Z,24.4
2019-01-28T08:55:52.354Z,24.3
2019-01-28T08:56:43.121Z,24.2
2019-01-28T08:57:31.879Z,23.9
2019-01-28T08:58:22.775Z,24.1
2019-01-28T08:59:12.551Z,24.3
2019-01-28T09:00:02.602Z,24.8
2019-01-28T09:00:53.292Z,25.4
2019-01-28T09:01:43.070Z,26.1
2019-01-28T09:02:32.819Z,26.7
2019-01-28T09:03:22.870Z,26.8
2019-01-28T09:04:12.884Z,26.7
2019-01-28T09:05:03.409Z,26.7
2019-01-28T09:05:53.294Z,26.8
2019-01-28T09:06:42.759Z,26.9
2019-01-28T09:07:33.119Z,27
2019-01-28T09:08:22.326Z,27.1
2019-01-28T09:09:13.256Z,27.3
2019-01-28T09:10:03.604Z,27.2
2019-01-28T09:10:52.801Z,27.1
2019-01-28T09:11:43.684Z,26.9
2019-01-28T09:12:33.761Z,26.8
2019-01-28T09:13:23.502Z,26.7
2019-01-28T09:14:13.826Z,26.6
2019-01-28T09:15:05.893Z,26.4
2019-01-28T09:15:53.498Z,26.4
2019-01-28T09:16:43.431Z,26.2
2019-01-28T09:17:33.846Z,26.1
2019-01-28T09:18:31.281Z,25.4
2019-01-28T09:19:14.678Z,25
2019-01-28T09:20:06.232Z,24.8
2019-01-28T09:20:54.790Z,24.6
2019-01-28T09:21:44.346Z,24.4
2019-01-28T09:22:34.399Z,24.3
2019-01-28T09:23:24.945Z,24.1
2019-01-28T09:24:14.332Z,24.1
2019-01-28T09:25:03.758Z,24.3
2019-01-28T09:25:55.408Z,24.6
2019-01-28T09:26:44.417Z,25.1
2019-01-28T09:27:33.974Z,25.8
2019-01-28T09:28:23.962Z,26.4
2019-01-28T09:29:13.475Z,26.9
2019-01-28T09:30:05.092Z,26.8
2019-01-28T09:30:56.400Z,26.5
2019-01-28T09:31:43.945Z,26.4
2019-01-28T09:32:35.303Z,26.2
2019-01-28T09:33:24.897Z,26.1
2019-01-28T09:34:16.022Z,25.9
2019-01-28T09:35:04.981Z,25.8
2019-01-28T09:35:56.073Z,25.6
2019-01-28T09:36:45.396Z,25.5
2019-01-28T09:37:35.761Z,25.4
2019-01-28T09:38:25.251Z,25.3
2019-01-28T09:39:14.878Z,25
2019-01-28T09:40:05.698Z,24.8
2019-01-28T09:40:55.658Z,24.6
2019-01-28T09:41:45.760Z,24.4
2019-01-28T09:42:36.018Z,24.3
2019-01-28T09:43:27.563Z,24.2
2019-01-28T09:44:16.100Z,24.1
2019-01-28T09:45:05.828Z,24.3
2019-01-28T09:45:56.305Z,24.5
2019-01-28T09:46:45.962Z,25.1
2019-01-28T09:47:36.655Z,25.7
2019-01-28T09:48:25.612Z,26.3
2019-01-28T09:49:18.440Z,26.9
2019-01-28T09:50:07.045Z,26.7
2019-01-28T09:50:56.529Z,26.4
2019-01-28T09:51:46.493Z,26.2
2019-01-28T09:52:36.930Z,26.1
2019-01-28T09:53:32.252Z,25.9
2019-01-28T09:54:16.765Z,25.8
2019-01-28T09:55:06.471Z,25.6
2019-01-28T09:55:56.957Z,25.5
2019-01-28T09:56:46.252Z,25.4
2019-01-28T09:57:36.851Z,25.3
2019-01-28T09:58:27.330Z,25.1
2019-01-28T09:59:17.231Z,25
2019-01-28T10:00:07.783Z,24.8
2019-01-28T10:00:57.609Z,24.6
2019-01-28T10:01:47.604Z,24.4
2019-01-28T10:02:37.139Z,24.3
2019-01-28T10:03:27.194Z,24
2019-01-28T10:04:17.496Z,24.1
2019-01-28T10:05:07.272Z,24.3
2019-01-28T10:07:34.656Z,25.7
2019-01-28T10:08:24.783Z,26.4
2019-01-28T10:09:18.994Z,27.1
2019-01-28T10:10:05.416Z,27
2019-01-28T10:10:55.212Z,26.9
2019-01-28T10:11:45.565Z,26.8
2019-01-28T10:12:37.645Z,26.6
2019-01-28T10:13:25.059Z,26.4
2019-01-28T10:14:15.113Z,26.3
2019-01-28T10:15:04.956Z,26.2
2019-01-28T10:15:55.838Z,26.1
2019-01-28T10:16:46.371Z,25.9
2019-01-28T10:17:35.883Z,25.8
2019-01-28T10:18:25.703Z,25.7
2019-01-28T10:19:15.996Z,25.6
2019-01-28T10:20:05.393Z,25.1
2019-01-28T10:20:55.580Z,24.8
2019-01-28T10:21:45.653Z,24.5
2019-01-28T10:22:36.223Z,24.3
2019-01-28T10:23:27.603Z,24.2
2019-01-28T10:24:16.915Z,24.1
2019-01-28T10:25:05.510Z,24.2
2019-01-28T10:26:00.347Z,24.4
2019-01-28T10:26:46.007Z,25
2019-01-28T10:27:36.018Z,25.6
2019-01-28T10:28:26.914Z,26.3
2019-01-28T10:29:15.857Z,26.7
2019-01-28T10:30:06.610Z,26.4
2019-01-28T10:30:55.975Z,26.3
2019-01-28T10:31:46.855Z,26.3
2019-01-28T10:32:44.545Z,26.4
2019-01-28T10:33:26.722Z,26.6
2019-01-28T10:34:16.297Z,26.8
2019-01-28T10:35:06.847Z,26.9
2019-01-28T10:35:55.532Z,27
2019-01-28T10:36:46.129Z,27.1
2019-01-28T10:37:36.147Z,27.3
2019-01-28T10:38:27.584Z,27.2
2019-01-28T10:39:16.902Z,27.1
2019-01-28T10:40:09.552Z,26.9
2019-01-28T10:40:57.055Z,26.8
2019-01-28T10:41:47.249Z,26.7
2019-01-28T10:42:37.111Z,26.5
2019-01-28T10:43:27.668Z,26.4
2019-01-28T10:44:19.146Z,26.3
2019-01-28T10:45:07.056Z,26.1
2019-01-28T10:45:57.599Z,26
2019-01-28T10:46:47.979Z,25.4
2019-01-28T10:47:37.428Z,25.2
2019-01-28T10:48:26.871Z,24.9
2019-01-28T10:49:17.334Z,24.8
2019-01-28T10:50:07.756Z,24.6
2019-01-28T10:50:58.462Z,24.5
2019-01-28T10:51:47.369Z,24.4
2019-01-28T10:52:37.771Z,24.3
2019-01-28T10:53:28.109Z,24.4
2019-01-28T10:54:17.856Z,24.5
2019-01-28T10:55:08.016Z,25
2019-01-28T10:55:58.516Z,25.4
2019-01-28T10:56:47.253Z,25.4
2019-01-28T10:57:38.658Z,26.1
2019-01-28T10:58:28.753Z,26.3
2019-01-28T10:59:18.521Z,26.2
2019-01-28T11:00:15.608Z,26.3
2019-01-28T11:00:58.880Z,27.1
2019-01-28T11:01:48.490Z,27.3
2019-01-28T11:02:38.998Z,27.1
2019-01-28T11:03:28.272Z,26.4
2019-01-28T11:04:18.125Z,25.7
2019-01-28T11:05:08.702Z,24.9
2019-01-28T11:05:58.675Z,24.1
2019-01-28T11:06:49.315Z,23.3
2019-01-28T11:07:39.315Z,22.3
2019-01-28T11:08:28.310Z,21.6
2019-01-28T11:09:18.695Z,21.5
2019-01-28T11:10:09.568Z,21.9
2019-01-28T11:10:59.394Z,22.7
2019-01-28T11:11:51.897Z,23.6
2019-01-28T11:12:40.545Z,24.6
2019-01-28T11:13:29.462Z,25.4
2019-01-28T11:14:20.144Z,26.2
2019-01-28T11:15:09.189Z,26.6
2019-01-28T11:16:00.703Z,26.4
2019-01-28T11:16:51.094Z,26.5
2019-01-28T11:17:40.419Z,26.6
2019-01-28T11:18:30.947Z,26.7
2019-01-28T11:19:19.020Z,26.9
2019-01-28T11:20:10.791Z,27.1
2019-01-28T11:21:01.070Z,27.3
2019-01-28T11:21:52.147Z,27.2
2019-01-28T11:22:39.383Z,27.1
2019-01-28T11:23:32.096Z,27
2019-01-28T11:24:20.643Z,26.9
2019-01-28T11:25:11.095Z,26.8
2019-01-28T11:26:01.579Z,26.6
2019-01-28T11:26:50.895Z,26.5
2019-01-28T11:27:42.476Z,26.4
2019-01-28T11:28:31.959Z,26.3
2019-01-28T11:29:21.960Z,26.1
2019-01-28T11:30:13.286Z,25.9
2019-01-28T11:31:02.112Z,25.2
2019-01-28T11:31:51.715Z,25.3
2019-01-28T11:32:42.410Z,25.6
2019-01-28T11:33:30.629Z,25.6
2019-01-28T11:34:21.646Z,25.8
2019-01-28T11:35:12.787Z,25.9
2019-01-28T11:36:10.392Z,26.1
2019-01-28T11:36:51.681Z,26.4
2019-01-28T11:37:42.458Z,26.6
2019-01-28T11:38:31.612Z,26.8
2019-01-28T11:39:21.487Z,27
2019-01-28T11:40:12.473Z,27.2
2019-01-28T11:41:03.140Z,27.3
2019-01-28T11:41:52.072Z,27.2
2019-01-28T11:42:44.363Z,27.1
2019-01-28T11:43:32.265Z,27
2019-01-28T11:44:21.784Z,26.8
2019-01-28T11:45:13.168Z,26.7
2019-01-28T11:46:02.766Z,26.6
2019-01-28T11:46:52.793Z,26.4
2019-01-28T11:47:43.209Z,26.3
2019-01-28T11:48:34.375Z,26.2
2019-01-28T11:49:23.345Z,26.1